METAR Data
IDs: Format: Raw Decoded Include TAF

Data at: 1136 UTC 21 Apr 2021

KGON 211056Z 07003KT 10SM CLR 09/08 A2982 RMK AO2 SLP097 T00940083